Time;durP1;ratioP1;P1;durP2;ratioP2;P2;SDS_P1;SDS_P2;PMS_P1;PMS_P2;Temp;Humidity;BMP_temperature;BMP_pressure;BME280_temperature;BME280_humidity;BME280_pressure;Samples;Min_cycle;Max_cycle;Signal;HPM_P1;HPM_P2
2021/05/02 00:05:18;;;;;;;8.63;6.87;;;8.10;57.70;;;;;;4947785;28;20521;-78
2021/05/02 00:07:58;;;;;;;11.27;6.50;;;8.00;57.60;;;;;;4956376;28;20431;-78
2021/05/02 00:10:47;;;;;;;10.60;7.47;;;8.00;57.90;;;;;;4966145;28;20452;-77
2021/05/02 00:13:51;;;;;;;16.53;7.27;;;8.00;58.10;;;;;;4969707;28;20432;-77
2021/05/02 00:16:29;;;;;;;12.90;8.10;;;8.00;58.30;;;;;;4938996;29;20440;-78
2021/05/02 00:19:08;;;;;;;11.40;8.03;;;8.00;58.40;;;;;;4954977;28;20424;-77
2021/05/02 00:21:56;;;;;;;11.53;7.33;;;7.90;58.60;;;;;;4964809;28;20429;-77
2021/05/02 00:24:42;;;;;;;9.50;6.80;;;7.90;58.80;;;;;;4959043;28;20419;-78
2021/05/02 00:27:35;;;;;;;9.50;7.10;;;7.90;58.90;;;;;;4961722;28;20407;-79
2021/05/02 00:30:29;;;;;;;10.73;8.00;;;7.80;59.00;;;;;;4946086;28;20471;-77
2021/05/02 00:33:07;;;;;;;10.17;7.77;;;7.70;59.40;;;;;;4961222;28;20443;-77
2021/05/02 00:35:48;;;;;;;8.97;6.77;;;7.70;59.80;;;;;;4963027;28;20415;-78
2021/05/02 00:38:14;;;;;;;11.50;7.57;;;7.60;60.00;;;;;;4960066;28;20426;-77
2021/05/02 00:41:04;;;;;;;9.90;7.87;;;7.50;60.60;;;;;;4965208;28;20462;-77
2021/05/02 00:43:42;;;;;;;12.97;8.37;;;7.50;61.00;;;;;;4967313;28;20486;-78
2021/05/02 00:46:16;;;;;;;13.30;7.90;;;7.40;61.30;;;;;;4980813;28;20430;-78
2021/05/02 00:49:09;;;;;;;9.80;7.50;;;7.40;61.60;;;;;;4981317;28;20456;-77
2021/05/02 00:51:57;;;;;;;15.30;9.30;;;7.40;62.00;;;;;;4978140;28;20424;-77
2021/05/02 00:55:07;;;;;;;12.30;8.77;;;7.30;62.50;;;;;;4955633;28;20408;-77
2021/05/02 00:58:05;;;;;;;12.30;8.50;;;7.20;63.00;;;;;;4921222;28;20822;-78
2021/05/02 01:01:01;;;;;;;13.10;9.60;;;7.20;63.50;;;;;;4973655;28;20426;-77
2021/05/02 01:03:46;;;;;;;15.67;10.27;;;7.10;63.80;;;;;;4974123;28;20412;-78
2021/05/02 01:06:36;;;;;;;16.50;10.03;;;7.10;64.50;;;;;;4973398;28;20423;-78
2021/05/02 01:12:43;;;;;;;15.00;9.03;;;7.00;65.30;;;;;;4959253;28;20474;-78
2021/05/02 01:15:32;;;;;;;15.27;10.20;;;6.90;65.80;;;;;;4961624;28;20453;-77
2021/05/02 01:18:26;;;;;;;14.27;10.40;;;6.90;66.10;;;;;;4941882;29;20932;-77
2021/05/02 01:20:58;;;;;;;16.70;10.23;;;6.80;66.50;;;;;;4956903;28;20519;-78
2021/05/02 01:23:37;;;;;;;15.63;9.63;;;6.80;66.80;;;;;;4958203;29;20413;-78
2021/05/02 01:26:16;;;;;;;15.10;10.40;;;6.70;67.00;;;;;;4965229;28;20411;-78
2021/05/02 01:29:02;;;;;;;15.17;9.63;;;6.70;67.40;;;;;;4960367;28;20462;-78
2021/05/02 01:31:38;;;;;;;12.07;9.50;;;6.70;67.50;;;;;;4974227;29;20416;-78
2021/05/02 01:34:09;;;;;;;16.30;11.67;;;6.60;67.80;;;;;;4973663;28;20428;-78
2021/05/02 01:36:53;;;;;;;18.93;10.43;;;6.60;68.10;;;;;;4974612;28;20417;-78
2021/05/02 01:39:26;;;;;;;15.10;10.27;;;6.60;68.60;;;;;;4967097;28;20531;-77
2021/05/02 01:41:58;;;;;;;15.23;9.63;;;6.50;68.80;;;;;;4964661;28;20533;-77
2021/05/02 01:44:33;;;;;;;15.50;10.70;;;6.50;69.00;;;;;;4955055;28;20801;-78
2021/05/02 01:47:20;;;;;;;17.17;11.63;;;6.40;69.10;;;;;;4954455;29;20412;-77
2021/05/02 01:50:21;;;;;;;18.70;10.80;;;6.40;69.10;;;;;;4954503;29;20478;-77
2021/05/02 01:52:57;;;;;;;15.37;10.93;;;6.40;69.50;;;;;;4889469;28;20863;-77
2021/05/02 01:55:44;;;;;;;18.23;11.00;;;6.40;69.70;;;;;;4955613;29;20879;-78
2021/05/02 01:58:25;;;;;;;16.00;10.50;;;6.40;70.00;;;;;;4939785;29;20665;-77
2021/05/02 02:01:06;;;;;;;19.20;10.77;;;6.30;70.10;;;;;;4954691;28;20975;-78
2021/05/02 02:03:54;;;;;;;17.30;11.07;;;6.30;70.30;;;;;;4954858;29;20416;-77
2021/05/02 02:06:58;;;;;;;15.20;10.47;;;6.30;70.30;;;;;;4958971;29;20436;-78
2021/05/02 02:09:32;;;;;;;15.70;11.20;;;6.30;70.30;;;;;;4957339;28;20470;-77
2021/05/02 02:12:21;;;;;;;;;;;;;;;;;;;;;
2021/05/02 02:18:24;;;;;;;17.07;9.93;;;6.20;71.10;;;;;;4982546;28;20404;-77
2021/05/02 02:20:53;;;;;;;20.93;10.43;;;6.30;71.10;;;;;;4994080;28;20934;-78
2021/05/02 02:23:33;;;;;;;18.30;12.40;;;6.30;71.30;;;;;;4963608;28;20467;-78
2021/05/02 02:26:26;;;;;;;17.53;12.60;;;6.30;71.50;;;;;;4963393;28;20427;-78
2021/05/02 02:29:07;;;;;;;20.00;11.73;;;6.40;71.60;;;;;;4961301;28;21074;-78
2021/05/02 02:31:52;;;;;;;17.07;11.80;;;6.40;71.50;;;;;;4944790;29;20938;-76
2021/05/02 02:34:31;;;;;;;18.47;11.70;;;6.60;71.50;;;;;;4960750;28;20420;-78
2021/05/02 02:36:57;;;;;;;19.00;12.37;;;6.70;71.00;;;;;;4959105;28;20912;-77
2021/05/02 02:39:23;;;;;;;21.93;12.40;;;6.70;70.50;;;;;;4959185;28;20442;-77
2021/05/02 02:41:59;;;;;;;18.43;11.97;;;6.80;70.60;;;;;;4958710;28;20193;-79
2021/05/02 02:44:30;;;;;;;19.97;12.57;;;6.80;70.70;;;;;;4958548;29;20164;-78
2021/05/02 02:47:41;;;;;;;16.60;10.53;;;6.80;70.80;;;;;;4942340;29;20492;-79
2021/05/02 02:50:31;;;;;;;22.23;13.40;;;6.80;71.00;;;;;;4928487;29;20559;-78
2021/05/02 02:53:12;;;;;;;19.33;11.13;;;6.80;71.20;;;;;;4935859;28;20428;-78
2021/05/02 02:56:09;;;;;;;19.83;11.43;;;6.80;71.40;;;;;;4958765;29;20487;-78
2021/05/02 02:58:48;;;;;;;15.30;10.00;;;6.80;71.60;;;;;;4966868;29;20401;-78
2021/05/02 03:01:35;;;;;;;18.27;11.00;;;6.80;71.60;;;;;;4944018;29;20428;-78
2021/05/02 03:04:10;;;;;;;16.20;11.80;;;6.80;71.90;;;;;;4960348;28;20776;-79
2021/05/02 03:06:43;;;;;;;21.37;12.20;;;6.90;71.90;;;;;;4958524;29;20404;-78
2021/05/02 03:09:10;;;;;;;21.97;11.97;;;6.90;71.80;;;;;;4972840;28;20459;-77
2021/05/02 03:11:44;;;;;;;17.17;12.13;;;6.90;72.10;;;;;;4975925;28;20447;-77
2021/05/02 03:14:13;;;;;;;20.13;13.60;;;6.90;72.30;;;;;;4977601;28;20422;-78
2021/05/02 03:16:44;;;;;;;18.40;12.17;;;6.90;72.60;;;;;;4977312;28;20449;-78
2021/05/02 03:19:22;;;;;;;16.97;11.63;;;6.90;72.60;;;;;;4956842;28;20436;-78
2021/05/02 03:22:09;;;;;;;21.83;11.70;;;6.90;72.70;;;;;;4956696;29;20432;-78
2021/05/02 03:24:40;;;;;;;17.73;10.43;;;6.90;72.80;;;;;;4956868;28;20479;-77
2021/05/02 03:27:21;;;;;;;16.90;10.73;;;6.90;73.00;;;;;;4956491;28;20425;-77
2021/05/02 03:29:50;;;;;;;17.50;13.00;;;7.00;73.10;;;;;;4940004;29;20499;-78
2021/05/02 03:32:34;;;;;;;;;;;;;;;;;;;;;
2021/05/02 03:35:04;;;;;;;21.80;13.53;;;7.00;73.10;;;;;;4957124;28;20409;-78
2021/05/02 03:37:48;;;;;;;19.80;12.40;;;7.00;73.10;;;;;;4958426;29;20436;-78
2021/05/02 03:40:23;;;;;;;21.53;11.90;;;7.10;72.80;;;;;;4956210;29;20437;-77
2021/05/02 03:43:01;;;;;;;24.43;14.27;;;7.10;73.10;;;;;;4956472;28;20519;-77
2021/05/02 03:45:31;;;;;;;15.00;12.07;;;7.00;73.20;;;;;;4964678;28;20436;-78
2021/05/02 03:48:05;;;;;;;24.10;14.10;;;7.00;73.30;;;;;;4975455;28;20985;-77
2021/05/02 03:50:49;;;;;;;21.93;13.93;;;7.00;73.50;;;;;;4976072;28;20495;-77
2021/05/02 03:53:17;;;;;;;18.07;13.17;;;7.00;73.50;;;;;;4978637;28;20511;-77
2021/05/02 03:55:55;;;;;;;21.47;13.80;;;7.00;73.70;;;;;;4981237;28;20427;-77
2021/05/02 03:58:23;;;;;;;22.77;13.87;;;7.00;74.00;;;;;;4962247;28;20434;-77
2021/05/02 04:01:19;;;;;;;27.00;14.40;;;7.00;74.10;;;;;;4978984;28;20435;-77
2021/05/02 04:04:03;;;;;;;21.00;14.50;;;7.00;74.30;;;;;;4976947;28;20435;-77
2021/05/02 04:06:59;;;;;;;20.43;12.07;;;7.10;74.40;;;;;;4981358;28;20403;-78
2021/05/02 04:09:25;;;;;;;23.70;13.60;;;7.10;74.20;;;;;;4963083;28;20498;-77
2021/05/02 04:11:59;;;;;;;24.20;13.23;;;7.10;74.30;;;;;;4979967;28;20411;-77
2021/05/02 04:14:25;;;;;;;19.50;12.60;;;7.10;74.40;;;;;;4981930;28;20168;-77
2021/05/02 04:17:08;;;;;;;22.00;13.70;;;7.10;75.00;;;;;;4975754;28;20468;-78
2021/05/02 04:19:38;;;;;;;20.97;13.20;;;7.10;74.40;;;;;;4967000;29;20192;-78
2021/05/02 04:22:15;;;;;;;23.30;14.20;;;7.10;74.50;;;;;;4967834;28;20620;-78
2021/05/02 04:25:28;;;;;;;25.50;13.50;;;7.10;74.80;;;;;;4967126;28;20430;-78
2021/05/02 04:27:57;;;;;;;24.93;14.70;;;7.00;74.60;;;;;;4958978;29;20413;-77
2021/05/02 04:30:30;;;;;;;21.10;13.63;;;7.00;74.80;;;;;;4959379;28;20483;-78
2021/05/02 04:33:05;;;;;;;17.07;11.70;;;7.00;75.20;;;;;;4956314;28;20189;-78
2021/05/02 04:35:41;;;;;;;23.20;15.23;;;7.10;75.40;;;;;;4955784;28;21090;-78
2021/05/02 04:38:19;;;;;;;21.40;13.50;;;7.10;74.80;;;;;;4954544;28;20888;-77
2021/05/02 04:40:47;;;;;;;24.10;13.63;;;7.10;74.70;;;;;;4954027;29;20983;-77
2021/05/02 04:43:25;;;;;;;23.60;13.57;;;7.10;74.60;;;;;;4954600;29;20523;-77
2021/05/02 04:46:18;;;;;;;31.37;15.50;;;7.10;74.80;;;;;;4970746;28;20968;-77
2021/05/02 04:48:49;;;;;;;19.70;12.53;;;7.10;74.60;;;;;;4976937;28;20207;-78
2021/05/02 04:51:26;;;;;;;17.80;12.60;;;7.00;74.30;;;;;;4977525;28;20400;-79
2021/05/02 04:54:11;;;;;;;17.77;11.47;;;7.00;74.70;;;;;;4960909;28;20411;-78
2021/05/02 04:56:42;;;;;;;18.10;11.33;;;7.10;74.50;;;;;;4959660;28;20420;-78
2021/05/02 04:59:14;;;;;;;18.23;11.43;;;7.10;73.70;;;;;;4962268;28;20570;-78
2021/05/02 05:01:53;;;;;;;20.07;11.63;;;7.10;73.70;;;;;;4975596;28;20420;-78
2021/05/02 05:04:32;;;;;;;18.30;11.40;;;7.20;73.70;;;;;;4976050;28;20915;-79
2021/05/02 05:07:10;;;;;;;20.10;12.27;;;7.20;73.50;;;;;;4976625;28;20415;-78
2021/05/02 05:09:52;;;;;;;20.83;14.33;;;7.30;72.60;;;;;;4973271;28;20518;-78
2021/05/02 05:12:47;;;;;;;26.33;11.10;;;7.30;72.70;;;;;;4967672;28;20431;-78
2021/05/02 05:15:45;;;;;;;16.47;11.53;;;7.30;72.80;;;;;;4958951;28;20420;-77
2021/05/02 05:18:39;;;;;;;16.73;10.33;;;7.30;72.20;;;;;;4957865;28;20444;-78
2021/05/02 05:21:22;;;;;;;17.00;10.20;;;7.40;72.30;;;;;;4939428;28;20457;-77
2021/05/02 05:23:54;;;;;;;25.37;12.50;;;7.40;72.50;;;;;;4984068;28;20415;-77
2021/05/02 05:26:23;;;;;;;13.13;9.20;;;7.50;71.60;;;;;;4983879;28;20408;-78
2021/05/02 05:29:22;;;;;;;17.10;10.60;;;7.60;70.40;;;;;;4975292;28;20531;-78
2021/05/02 05:31:48;;;;;;;13.40;8.57;;;7.60;70.00;;;;;;4978391;28;20513;-78
2021/05/02 05:34:14;;;;;;;12.83;8.47;;;7.60;70.30;;;;;;4976254;28;20436;-78
2021/05/02 05:36:54;;;;;;;14.27;8.17;;;7.70;69.50;;;;;;4975760;28;20774;-79
2021/05/02 05:39:40;;;;;;;12.93;8.87;;;7.80;69.30;;;;;;4975096;28;20470;-78
2021/05/02 05:42:13;;;;;;;15.60;9.80;;;7.80;68.20;;;;;;4953127;28;20420;-78
2021/05/02 05:44:39;;;;;;;13.10;9.60;;;7.90;68.00;;;;;;4972373;28;20401;-78
2021/05/02 05:47:08;;;;;;;15.63;8.30;;;7.80;67.80;;;;;;4960889;28;20416;-78
2021/05/02 05:50:12;;;;;;;14.73;8.10;;;7.80;68.00;;;;;;4958572;28;20466;-78
2021/05/02 05:53:28;;;;;;;11.23;7.03;;;7.90;68.20;;;;;;4978835;28;20415;-78
2021/05/02 05:56:11;;;;;;;13.30;6.40;;;7.80;66.90;;;;;;4961721;28;20972;-79
2021/05/02 05:58:43;;;;;;;13.53;6.90;;;7.80;65.70;;;;;;4979671;28;20427;-78
2021/05/02 06:01:50;;;;;;;13.27;7.43;;;7.80;65.20;;;;;;4963821;28;20515;-78
2021/05/02 06:04:34;;;;;;;11.03;6.53;;;7.70;65.90;;;;;;4960700;28;20439;-77
2021/05/02 06:07:10;;;;;;;14.87;7.00;;;7.70;66.00;;;;;;4977729;28;20518;-78
2021/05/02 06:09:42;;;;;;;12.27;7.00;;;7.60;66.10;;;;;;4961152;28;20464;-78
2021/05/02 06:12:28;;;;;;;12.17;6.50;;;7.70;65.80;;;;;;4962164;29;20788;-78
2021/05/02 06:15:19;;;;;;;10.63;6.67;;;7.60;65.60;;;;;;4967050;28;20788;-77
2021/05/02 06:18:14;;;;;;;8.03;5.33;;;7.60;66.00;;;;;;4978029;28;20424;-79
2021/05/02 06:20:40;;;;;;;9.93;6.07;;;7.60;66.00;;;;;;4983049;28;20441;-79
2021/05/02 06:23:11;;;;;;;14.17;5.70;;;7.60;65.50;;;;;;4982716;28;20443;-78
2021/05/02 06:26:05;;;;;;;8.10;5.67;;;7.60;65.30;;;;;;4984574;28;20400;-79
2021/05/02 06:29:18;;;;;;;15.17;5.57;;;7.60;65.20;;;;;;4965264;28;20419;-78
2021/05/02 06:31:49;;;;;;;16.63;5.33;;;7.60;65.50;;;;;;4933324;28;20466;-78
2021/05/02 06:34:23;;;;;;;10.70;5.93;;;7.60;64.50;;;;;;4978676;28;20420;-79
2021/05/02 06:37:19;;;;;;;7.03;4.50;;;7.60;64.50;;;;;;4979029;28;20439;-79
2021/05/02 06:40:02;;;;;;;7.53;3.90;;;7.60;63.80;;;;;;4978477;28;20446;-79
2021/05/02 06:43:02;;;;;;;8.97;5.60;;;7.60;64.50;;;;;;4973382;28;20829;-79
2021/05/02 06:45:49;;;;;;;6.60;4.93;;;7.70;64.00;;;;;;4960201;28;20427;-80
2021/05/02 06:48:18;;;;;;;13.57;7.20;;;7.70;63.90;;;;;;4961829;28;20888;-79
2021/05/02 06:51:03;;;;;;;10.00;5.03;;;7.70;64.40;;;;;;4962110;29;20523;-79
2021/05/02 06:54:15;;;;;;;;;;;;;;;;;;;;;
2021/05/02 06:57:21;;;;;;;7.23;4.50;;;7.80;64.40;;;;;;4979437;28;20791;-79
2021/05/02 06:59:56;;;;;;;9.10;4.60;;;8.00;62.80;;;;;;4963994;28;20464;-79
2021/05/02 07:02:34;;;;;;;8.10;4.80;;;8.10;63.00;;;;;;4982914;28;20511;-78
2021/05/02 07:05:13;;;;;;;9.00;5.07;;;8.20;62.10;;;;;;4965081;28;20780;-78
2021/05/02 07:07:47;;;;;;;12.33;5.43;;;8.30;61.40;;;;;;4979091;28;20447;-79
2021/05/02 07:10:36;;;;;;;12.03;6.00;;;8.50;61.80;;;;;;4983103;28;20873;-79
2021/05/02 07:13:14;;;;;;;10.80;4.97;;;8.80;59.90;;;;;;4964251;28;20427;-79
2021/05/02 07:18:56;;;;;;;7.40;4.60;;;10.00;57.00;;;;;;4983972;28;20430;-79
2021/05/02 07:24:57;;;;;;;7.10;3.30;;;10.70;52.70;;;;;;4977844;28;20548;-80
2021/05/02 07:27:26;;;;;;;16.27;3.60;;;10.60;53.60;;;;;;4976844;28;20426;-79
2021/05/02 07:29:59;;;;;;;8.90;2.83;;;10.50;52.60;;;;;;4962262;28;20472;-79
2021/05/02 07:32:24;;;;;;;5.13;2.50;;;10.50;53.60;;;;;;4960913;28;20864;-78
2021/05/02 07:35:12;;;;;;;5.80;2.23;;;10.80;52.80;;;;;;4959625;28;20436;-79
2021/05/02 07:37:39;;;;;;;9.43;2.70;;;10.80;51.40;;;;;;4958549;28;20412;-78
2021/05/02 07:40:19;;;;;;;6.80;2.80;;;10.70;51.30;;;;;;4960979;28;20464;-78
2021/05/02 07:43:04;;;;;;;4.13;2.60;;;10.90;50.20;;;;;;4958817;29;20460;-78
2021/05/02 07:45:48;;;;;;;7.70;2.80;;;11.10;49.10;;;;;;4956999;28;20440;-78
2021/05/02 07:48:34;;;;;;;5.70;2.97;;;10.90;49.50;;;;;;4957243;28;20417;-78
2021/05/02 07:51:01;;;;;;;7.13;2.90;;;10.60;49.70;;;;;;4941232;29;20441;-78
2021/05/02 07:53:31;;;;;;;8.70;2.90;;;10.50;50.10;;;;;;4964042;28;20437;-79
2021/05/02 07:55:57;;;;;;;3.93;2.17;;;10.70;50.50;;;;;;4958740;28;20875;-77
2021/05/02 07:58:25;;;;;;;6.90;2.93;;;11.20;49.50;;;;;;4962362;28;20523;-78
2021/05/02 08:00:57;;;;;;;5.97;2.43;;;12.10;48.70;;;;;;4987438;28;20813;-80
2021/05/02 08:03:23;;;;;;;11.47;2.80;;;12.90;45.30;;;;;;4975997;28;20485;-75
2021/05/02 08:05:49;;;;;;;8.37;2.87;;;13.20;44.40;;;;;;4960792;28;20452;-74
2021/05/02 08:08:15;;;;;;;8.90;2.73;;;12.90;44.20;;;;;;4962494;28;20838;-76
2021/05/02 08:10:40;;;;;;;4.30;2.23;;;12.30;44.40;;;;;;4954591;28;20212;-74
2021/05/02 08:13:06;;;;;;;4.10;1.83;;;11.80;44.80;;;;;;4960398;28;20420;-75
2021/05/02 08:15:32;;;;;;;4.30;2.20;;;11.30;46.00;;;;;;4975397;28;20235;-74
2021/05/02 08:17:58;;;;;;;3.17;2.40;;;12.10;47.30;;;;;;4972618;28;20182;-75
2021/05/02 08:20:25;;;;;;;7.00;2.40;;;13.40;44.10;;;;;;4991309;28;20775;-76
2021/05/02 08:22:51;;;;;;;3.77;2.03;;;13.50;43.20;;;;;;4974210;28;20776;-75
2021/05/02 08:25:17;;;;;;;6.10;2.23;;;12.80;43.70;;;;;;4953151;28;20421;-75
2021/05/02 08:27:44;;;;;;;2.80;2.03;;;12.30;44.80;;;;;;4973284;28;20455;-74
2021/05/02 08:30:10;;;;;;;3.50;2.37;;;11.80;45.90;;;;;;4973785;28;20704;-75
2021/05/02 08:32:36;;;;;;;4.27;2.63;;;11.30;46.40;;;;;;4972920;28;20415;-75
2021/05/02 08:35:03;;;;;;;6.47;2.30;;;10.80;47.30;;;;;;4971987;28;20752;-75
2021/05/02 08:37:29;;;;;;;7.40;3.23;;;10.50;48.10;;;;;;4958585;28;20174;-75
2021/05/02 08:39:55;;;;;;;5.63;2.53;;;10.40;49.10;;;;;;4954001;28;20523;-75
2021/05/02 08:42:20;;;;;;;5.93;2.57;;;10.60;49.20;;;;;;4954217;28;20552;-76
2021/05/02 08:44:46;;;;;;;3.50;2.47;;;10.90;48.40;;;;;;4960867;28;20184;-75
2021/05/02 08:47:13;;;;;;;3.97;2.47;;;10.90;46.50;;;;;;4954624;28;20180;-74
2021/05/02 08:49:44;;;;;;;6.67;2.53;;;10.90;47.70;;;;;;4954970;28;20456;-76
2021/05/02 08:52:10;;;;;;;5.47;2.10;;;11.50;46.70;;;;;;4954083;28;20413;-75
2021/05/02 08:54:36;;;;;;;7.97;3.03;;;11.80;44.20;;;;;;4951592;28;20512;-75
2021/05/02 08:57:26;;;;;;;6.07;2.60;;;11.70;44.20;;;;;;4957651;28;20425;-78
2021/05/02 08:59:55;;;;;;;6.00;3.40;;;11.40;45.10;;;;;;4965601;28;20431;-81
2021/05/02 09:02:31;;;;;;;5.23;3.00;;;11.10;45.90;;;;;;4974625;28;21310;-80
2021/05/02 09:05:05;;;;;;;9.13;2.83;;;10.80;46.70;;;;;;4962144;23;21144;-78
2021/05/02 09:07:47;;;;;;;7.90;3.50;;;10.80;47.20;;;;;;4991570;28;20475;-80
2021/05/02 09:10:18;;;;;;;5.57;3.30;;;11.30;47.20;;;;;;4974208;28;20462;-79
2021/05/02 09:13:13;;;;;;;6.70;2.40;;;12.30;45.30;;;;;;4973512;28;20876;-81
2021/05/02 09:16:14;;;;;;;2.50;1.80;;;12.80;43.00;;;;;;4964911;28;20689;-82
2021/05/02 09:18:46;;;;;;;5.30;2.70;;;12.50;42.30;;;;;;4967414;28;20408;-81
2021/05/02 09:21:31;;;;;;;6.00;2.97;;;12.10;42.20;;;;;;4978860;28;20432;-81
2021/05/02 09:24:07;;;;;;;6.37;2.50;;;11.70;43.20;;;;;;4988096;28;20424;-78
2021/05/02 09:26:39;;;;;;;6.33;2.87;;;11.30;43.60;;;;;;4978643;28;20463;-81
2021/05/02 09:29:07;;;;;;;5.13;3.07;;;10.90;44.40;;;;;;4966587;28;20455;-80
2021/05/02 09:31:58;;;;;;;3.53;2.43;;;11.30;46.30;;;;;;4973863;28;20435;-82
2021/05/02 09:34:24;;;;;;;5.80;2.33;;;13.00;43.00;;;;;;4957445;28;20431;-80
2021/05/02 09:36:57;;;;;;;5.77;2.20;;;14.00;39.60;;;;;;4969716;28;20426;-82
2021/05/02 09:40:04;;;;;;;3.43;3.13;;;14.00;38.00;;;;;;4969339;28;20491;-83
2021/05/02 09:42:49;;;;;;;4.03;2.40;;;13.40;38.80;;;;;;4951923;28;20412;-80
2021/05/02 09:45:15;;;;;;;3.50;2.30;;;12.70;40.00;;;;;;4963497;28;20994;-81
2021/05/02 09:47:44;;;;;;;5.40;2.50;;;12.20;41.40;;;;;;4978407;28;20401;-78
2021/05/02 09:50:23;;;;;;;6.17;3.30;;;11.70;42.50;;;;;;4980537;28;20196;-81
2021/05/02 09:53:02;;;;;;;5.43;2.90;;;11.80;43.80;;;;;;4971248;28;20428;-81
2021/05/02 09:55:30;;;;;;;5.40;2.50;;;12.50;42.40;;;;;;4968062;28;20439;-80
2021/05/02 09:58:17;;;;;;;5.67;2.70;;;12.90;41.10;;;;;;4972478;28;20444;-83
2021/05/02 10:00:55;;;;;;;7.43;2.57;;;14.20;38.40;;;;;;4969424;29;20428;-83
2021/05/02 10:03:51;;;;;;;7.97;2.80;;;15.00;36.60;;;;;;4953319;29;20409;-81
2021/05/02 10:06:31;;;;;;;11.80;3.20;;;14.80;35.10;;;;;;4970196;28;20473;-81
2021/05/02 10:08:59;;;;;;;5.50;2.60;;;14.90;35.60;;;;;;4987705;28;20935;-80
2021/05/02 10:11:25;;;;;;;4.20;2.00;;;15.10;36.00;;;;;;4987869;28;20427;-80
2021/05/02 10:13:51;;;;;;;8.00;3.27;;;15.20;35.80;;;;;;4971759;28;20423;-81
2021/05/02 10:16:17;;;;;;;4.53;2.50;;;14.80;35.30;;;;;;4968721;28;20456;-80
2021/05/02 10:18:43;;;;;;;5.40;2.33;;;14.70;34.80;;;;;;4983840;28;20408;-80
2021/05/02 10:21:09;;;;;;;2.90;2.53;;;14.50;35.10;;;;;;4985533;28;20468;-82
2021/05/02 10:23:36;;;;;;;5.90;1.97;;;14.80;34.80;;;;;;4971062;28;20439;-80
2021/05/02 10:26:05;;;;;;;5.50;2.50;;;15.50;33.00;;;;;;4968374;28;20452;-81
2021/05/02 10:28:34;;;;;;;2.60;1.80;;;16.30;32.60;;;;;;4947166;29;20452;-80
2021/05/02 10:31:02;;;;;;;4.10;2.40;;;16.60;31.80;;;;;;4947857;29;20436;-81
2021/05/02 10:33:32;;;;;;;3.43;1.90;;;16.30;31.50;;;;;;4953642;29;20421;-81
2021/05/02 10:36:19;;;;;;;5.03;2.27;;;15.70;31.90;;;;;;4964491;28;20657;-81
2021/05/02 10:38:55;;;;;;;3.17;2.00;;;15.10;33.40;;;;;;4987140;28;20412;-82
2021/05/02 10:41:25;;;;;;;4.13;2.13;;;15.30;33.20;;;;;;4987331;28;20431;-81
2021/05/02 10:43:55;;;;;;;5.20;2.30;;;15.40;32.00;;;;;;4955479;29;20397;-83
2021/05/02 10:46:45;;;;;;;4.47;2.20;;;15.10;32.00;;;;;;4963999;28;21085;-82
2021/05/02 10:49:20;;;;;;;3.93;2.33;;;14.70;32.20;;;;;;4969299;28;20463;-82
2021/05/02 10:51:53;;;;;;;3.97;2.10;;;14.30;32.10;;;;;;4981684;28;20527;-80
2021/05/02 10:54:23;;;;;;;5.20;1.70;;;14.20;32.80;;;;;;4967029;28;20438;-80
2021/05/02 10:56:59;;;;;;;2.73;1.70;;;13.90;33.50;;;;;;4969717;28;20416;-80
2021/05/02 11:00:03;;;;;;;2.40;1.87;;;13.60;34.10;;;;;;4989503;28;20423;-80
2021/05/02 11:02:37;;;;;;;4.90;2.30;;;13.50;35.20;;;;;;4961954;29;20559;-82
2021/05/02 11:05:04;;;;;;;3.40;2.27;;;13.50;35.50;;;;;;4949699;29;20482;-82
2021/05/02 11:07:38;;;;;;;2.60;1.70;;;13.50;35.60;;;;;;4984227;28;20486;-81
2021/05/02 11:10:06;;;;;;;5.47;2.03;;;13.50;35.60;;;;;;4947946;28;20459;-80
2021/05/02 11:12:33;;;;;;;4.53;2.20;;;13.40;35.80;;;;;;4947702;29;20481;-81
2021/05/02 11:15:00;;;;;;;6.97;3.13;;;13.40;35.60;;;;;;4977048;28;20455;-81
2021/05/02 11:17:27;;;;;;;6.83;1.93;;;13.10;35.20;;;;;;4985350;28;20404;-82
2021/05/02 11:19:54;;;;;;;3.50;2.33;;;12.80;35.20;;;;;;4986531;28;20443;-79
2021/05/02 11:22:21;;;;;;;5.33;2.67;;;12.70;35.40;;;;;;4966669;28;20432;-81
2021/05/02 11:24:51;;;;;;;4.30;2.10;;;12.80;35.70;;;;;;4964739;28;20456;-79
2021/05/02 11:27:38;;;;;;;3.60;2.23;;;12.80;36.90;;;;;;4977305;28;20784;-79
2021/05/02 11:30:17;;;;;;;4.80;2.30;;;12.90;36.80;;;;;;4967735;28;20459;-82
2021/05/02 11:32:44;;;;;;;5.53;5.03;;;13.10;36.40;;;;;;4981473;28;20416;-80
2021/05/02 11:35:13;;;;;;;5.00;2.53;;;13.30;35.70;;;;;;4959850;28;20440;-79
2021/05/02 11:37:45;;;;;;;2.80;2.27;;;13.20;35.30;;;;;;4956654;28;20446;-82
2021/05/02 11:40:37;;;;;;;4.40;2.90;;;13.10;35.60;;;;;;4974277;28;20427;-82
2021/05/02 11:43:16;;;;;;;2.93;2.20;;;13.10;36.20;;;;;;4990185;28;20479;-83
2021/05/02 11:45:53;;;;;;;5.43;2.40;;;12.90;36.40;;;;;;4969302;28;20467;-80
2021/05/02 11:48:42;;;;;;;2.50;1.80;;;12.80;36.60;;;;;;4965548;28;20558;-75
2021/05/02 11:51:19;;;;;;;4.07;2.37;;;12.90;35.40;;;;;;4964083;28;20442;-75
2021/05/02 11:53:52;;;;;;;3.00;1.80;;;13.00;35.70;;;;;;4961081;29;20425;-77
2021/05/02 11:56:23;;;;;;;5.60;1.97;;;13.30;35.30;;;;;;4960754;29;20468;-77
2021/05/02 11:58:50;;;;;;;3.40;1.80;;;13.30;34.90;;;;;;4962780;28;20417;-77
2021/05/02 12:01:30;;;;;;;3.27;2.20;;;13.30;35.50;;;;;;4962789;28;20474;-78
2021/05/02 12:04:39;;;;;;;4.13;2.10;;;13.20;33.90;;;;;;5112625;27;20597;-78
2021/05/02 12:07:05;;;;;;;2.17;1.77;;;13.00;35.20;;;;;;5111617;28;20423;-78
2021/05/02 12:09:31;;;;;;;7.47;2.50;;;12.80;35.40;;;;;;5104825;28;21095;-76
2021/05/02 12:11:59;;;;;;;3.57;2.13;;;12.70;36.00;;;;;;5100240;28;20442;-75
2021/05/02 12:14:30;;;;;;;3.07;1.60;;;12.50;36.30;;;;;;5100063;28;20430;-76
2021/05/02 12:16:59;;;;;;;2.80;2.27;;;12.60;36.50;;;;;;5092446;28;20436;-75
2021/05/02 12:19:26;;;;;;;6.50;1.60;;;12.80;36.10;;;;;;5089909;28;20429;-76
2021/05/02 12:21:52;;;;;;;4.10;2.10;;;13.20;35.40;;;;;;5091659;28;20407;-75
2021/05/02 12:24:26;;;;;;;5.50;1.97;;;13.60;34.70;;;;;;5105996;28;20446;-75
2021/05/02 12:26:55;;;;;;;3.30;1.90;;;13.90;34.40;;;;;;5106027;28;20422;-75
2021/05/02 12:29:27;;;;;;;4.17;1.57;;;14.20;34.00;;;;;;5115197;28;20512;-79
2021/05/02 12:32:04;;;;;;;2.70;1.57;;;14.20;33.70;;;;;;5115592;28;20406;-77
2021/05/02 12:34:36;;;;;;;3.83;2.07;;;14.20;34.10;;;;;;5111384;28;20418;-76
2021/05/02 12:37:13;;;;;;;3.80;1.60;;;14.10;33.50;;;;;;5093885;28;20441;-75
2021/05/02 12:39:40;;;;;;;3.07;2.00;;;14.00;34.20;;;;;;5115301;28;20409;-77
2021/05/02 12:42:07;;;;;;;4.20;1.80;;;14.10;34.00;;;;;;5118518;28;20413;-78
2021/05/02 12:44:35;;;;;;;2.67;1.80;;;13.80;33.70;;;;;;5116058;28;20415;-75
2021/05/02 12:47:06;;;;;;;5.13;2.30;;;13.60;34.10;;;;;;5115745;28;20486;-78
2021/05/02 12:49:34;;;;;;;3.30;1.90;;;13.30;33.80;;;;;;5113834;28;20822;-77
2021/05/02 12:52:12;;;;;;;2.73;1.90;;;13.20;34.30;;;;;;5118519;28;20402;-78
2021/05/02 12:54:38;;;;;;;2.43;1.50;;;13.10;34.10;;;;;;5111501;28;20448;-78
2021/05/02 12:57:09;;;;;;;2.90;1.60;;;13.00;34.70;;;;;;5097726;28;20398;-77
2021/05/02 12:59:46;;;;;;;9.50;3.73;;;13.00;34.20;;;;;;5112455;28;20448;-79
2021/05/02 13:02:29;;;;;;;6.00;2.10;;;13.10;34.20;;;;;;5111084;28;20420;-76
2021/05/02 13:05:12;;;;;;;7.67;3.23;;;13.20;34.10;;;;;;5113029;28;20429;-77
2021/05/02 13:07:43;;;;;;;14.00;3.80;;;13.20;34.20;;;;;;5112414;28;20394;-78
2021/05/02 13:10:27;;;;;;;2.60;1.60;;;13.20;33.90;;;;;;5094490;28;20817;-79
2021/05/02 13:13:08;;;;;;;3.30;1.97;;;13.10;33.70;;;;;;5116802;28;20462;-78
2021/05/02 13:15:39;;;;;;;2.40;1.60;;;13.30;33.80;;;;;;5108534;28;20429;-78
2021/05/02 13:18:12;;;;;;;5.03;2.53;;;13.40;33.80;;;;;;5103149;28;20446;-78
2021/05/02 13:20:47;;;;;;;6.70;3.00;;;13.30;34.20;;;;;;5109771;28;20455;-75
2021/05/02 13:23:24;;;;;;;6.57;2.83;;;13.60;34.40;;;;;;5112148;28;20457;-77
2021/05/02 13:26:21;;;;;;;5.33;2.00;;;13.80;33.60;;;;;;5118343;28;20446;-77
2021/05/02 13:29:08;;;;;;;3.63;2.33;;;13.90;33.80;;;;;;5116219;28;20398;-76
2021/05/02 13:31:43;;;;;;;4.03;2.13;;;14.20;33.80;;;;;;5103910;28;20406;-76
2021/05/02 13:34:11;;;;;;;4.13;1.97;;;14.20;32.90;;;;;;5100627;28;20907;-79
2021/05/02 13:36:37;;;;;;;4.10;2.07;;;14.30;32.60;;;;;;5102099;28;20434;-78
2021/05/02 13:39:06;;;;;;;7.73;1.70;;;14.30;32.90;;;;;;5118369;28;20422;-76
2021/05/02 13:41:33;;;;;;;2.60;1.80;;;14.10;33.30;;;;;;5117732;28;20172;-76
2021/05/02 13:44:11;;;;;;;2.40;1.77;;;13.90;32.90;;;;;;5117713;28;20466;-77
2021/05/02 13:46:37;;;;;;;7.83;2.97;;;13.70;33.60;;;;;;5106374;28;20422;-76
2021/05/02 13:49:03;;;;;;;5.20;2.40;;;13.30;33.30;;;;;;5101235;28;20410;-77
2021/05/02 13:51:29;;;;;;;5.87;2.00;;;12.90;34.10;;;;;;5083865;28;20410;-76
2021/05/02 13:53:55;;;;;;;5.93;2.23;;;12.80;34.80;;;;;;5101593;28;20403;-77
2021/05/02 13:56:23;;;;;;;2.80;2.23;;;12.60;35.20;;;;;;5097754;28;21089;-78
2021/05/02 13:59:02;;;;;;;4.07;1.80;;;12.50;36.00;;;;;;5101213;28;20194;-77